KAEL

Details ICAO KAEL
Name ALBERT LEA MUNI
Region United States
Timezone America/Chicago (UTC-6.0)
Plans Departing 0
Arriving 5
Stats Elevation 1,259 ft / 384 m (AMSL)
Location 43.681576° -93.367268°
Runways 2
Magnetic Variation 0.425° E
Sunrise 2017-12-18 13:43:43 UTC / 2017-12-18 07:43:43 Local
Sunset 2017-12-18 22:39:24 UTC / 2017-12-18 16:39:24 Local
Advertisement - Login to hide

Runways

ID Width Length Bearing (true) Bearing (mag) Surface Threshold Offset Overrun Length
04 75 ft / 23 m 2,897 ft / 883 m 46.45° 46.03° Asphalt 0 ft / 0 m 0 ft / 0 m
16 100 ft / 30 m 4,505 ft / 1,373 m 168.23° 167.81° Asphalt 0 ft / 0 m 0 ft / 0 m
22 75 ft / 23 m 2,897 ft / 883 m 226.45° 226.03° Asphalt 0 ft / 0 m 0 ft / 0 m
34 100 ft / 30 m 4,505 ft / 1,373 m 348.23° 347.81° Asphalt 0 ft / 0 m 0 ft / 0 m

Map

Weather


0- 5 10 15 20 25 30 35+ Temperature / ° C

Clouds and Precipitation
Forecast for 2017-12-18 18:00 UTC. Updated an hour ago

Ground ~20,000 ft ~40,000 ft Winds

METAR

KAEL 181639Z AUTO 21007KT 7SM CLR 01/M03 A2981 RMK AO2

TAF

Not found

Frequencies

Unicom 123.00 MHz CTAF/UNICOM
Approach 119.80 MHz ROCHESTER APP/DEP
Warning: Do not use this data for real-world aviation or navigation. No guarantee of current accuracy is given.